Time;durP1;ratioP1;P1;durP2;ratioP2;P2;SDS_P1;SDS_P2;PMS_P1;PMS_P2;Temp;Humidity;BMP_temperature;BMP_pressure;BME280_temperature;BME280_humidity;BME280_pressure;Samples;Min_cycle;Max_cycle;Signal;HPM_P1;HPM_P2
2024/03/25 00:01:22;;;;;;;;;40.25;35.50;;;;;;;;5048643;28;11614;-83
2024/03/25 00:03:49;;;;;;;;;33.00;31.50;;;;;;;;5048247;28;11584;-81
2024/03/25 00:06:15;;;;;;;;;44.00;37.75;;;;;;;;5037775;28;11602;-85
2024/03/25 00:08:43;;;;;;;;;42.75;37.75;;;;;;;;5048983;28;11559;-84
2024/03/25 00:11:10;;;;;;;;;39.50;37.50;;;;;;;;5049319;28;11643;-84
2024/03/25 00:13:37;;;;;;;;;18.50;14.50;;;;;;;;5048459;28;11715;-81
2024/03/25 00:16:05;;;;;;;;;41.25;32.75;;;;;;;;5047620;28;11705;-86
2024/03/25 00:18:32;;;;;;;;;33.50;26.75;;;;;;;;5048577;28;11686;-82
2024/03/25 00:21:01;;;;;;;;;29.75;28.00;;;;;;;;5048637;28;11587;-81
2024/03/25 00:23:31;;;;;;;;;27.75;24.25;;;;;;;;5048475;28;11530;-83
2024/03/25 00:25:57;;;;;;;;;29.00;27.00;;;;;;;;5047201;28;11576;-82
2024/03/25 00:28:25;;;;;;;;;24.75;20.50;;;;;;;;5047843;28;11557;-79
2024/03/25 00:30:52;;;;;;;;;28.75;21.25;;;;;;;;5048631;28;11455;-85
2024/03/25 00:33:19;;;;;;;;;25.25;24.00;;;;;;;;5047938;28;11557;-83
2024/03/25 00:35:45;;;;;;;;;24.75;23.75;;;;;;;;5048807;28;11560;-80
2024/03/25 00:38:13;;;;;;;;;23.75;20.00;;;;;;;;5049721;28;11573;-79
2024/03/25 00:40:39;;;;;;;;;16.25;16.25;;;;;;;;5051345;28;11533;-82
2024/03/25 00:43:06;;;;;;;;;14.50;11.25;;;;;;;;5051872;28;11533;-83
2024/03/25 00:45:34;;;;;;;;;16.00;14.75;;;;;;;;5053802;28;11672;-81
2024/03/25 00:48:01;;;;;;;;;11.00;11.00;;;;;;;;5052733;28;11507;-80
2024/03/25 00:50:30;;;;;;;;;13.50;11.50;;;;;;;;5053938;28;11590;-79
2024/03/25 00:52:58;;;;;;;;;16.75;13.50;;;;;;;;5053166;28;11634;-80
2024/03/25 00:55:24;;;;;;;;;15.00;15.00;;;;;;;;5055629;28;11569;-84
2024/03/25 00:57:52;;;;;;;;;18.00;15.75;;;;;;;;5054116;28;11586;-84
2024/03/25 01:00:19;;;;;;;;;9.00;8.00;;;;;;;;5052044;28;11571;-86
2024/03/25 01:02:48;;;;;;;;;7.00;7.00;;;;;;;;5052178;28;11527;-83
2024/03/25 01:05:16;;;;;;;;;10.25;7.50;;;;;;;;5052788;28;12284;-82
2024/03/25 01:07:43;;;;;;;;;9.25;8.00;;;;;;;;5053610;28;11631;-89
2024/03/25 01:10:10;;;;;;;;;8.75;8.00;;;;;;;;5061505;28;11551;-81
2024/03/25 01:12:37;;;;;;;;;7.00;7.00;;;;;;;;5077497;28;11474;-81
2024/03/25 01:15:05;;;;;;;;;9.00;9.00;;;;;;;;5061272;28;11552;-86
2024/03/25 01:17:32;;;;;;;;;10.00;10.00;;;;;;;;5053009;28;11493;-80
2024/03/25 01:20:00;;;;;;;;;8.00;6.50;;;;;;;;5051778;28;11547;-85
2024/03/25 01:22:27;;;;;;;;;10.00;9.00;;;;;;;;5040309;28;11485;-84
2024/03/25 01:24:53;;;;;;;;;10.25;9.00;;;;;;;;5053092;28;11519;-84
2024/03/25 01:27:21;;;;;;;;;14.00;10.50;;;;;;;;5054839;28;11537;-85
2024/03/25 01:29:47;;;;;;;;;9.25;9.25;;;;;;;;5052032;28;11534;-81
2024/03/25 01:32:15;;;;;;;;;10.75;8.50;;;;;;;;5055454;28;11479;-83
2024/03/25 01:34:41;;;;;;;;;12.00;10.00;;;;;;;;5053107;28;11597;-87
2024/03/25 01:37:10;;;;;;;;;15.25;10.25;;;;;;;;5052086;28;11534;-86
2024/03/25 01:39:37;;;;;;;;;9.00;9.00;;;;;;;;5051723;28;11524;-86
2024/03/25 01:42:04;;;;;;;;;11.00;8.50;;;;;;;;5051772;28;11507;-83
2024/03/25 01:44:31;;;;;;;;;9.00;6.75;;;;;;;;5051738;28;11563;-85
2024/03/25 01:46:58;;;;;;;;;10.50;8.75;;;;;;;;5053267;28;11541;-85
2024/03/25 01:49:24;;;;;;;;;8.75;7.00;;;;;;;;5055461;28;11574;-85
2024/03/25 01:51:52;;;;;;;;;13.25;11.50;;;;;;;;5052566;28;11502;-87
2024/03/25 01:54:20;;;;;;;;;14.50;11.50;;;;;;;;5051476;28;11571;-83
2024/03/25 01:56:48;;;;;;;;;8.50;8.50;;;;;;;;5051333;28;11558;-80
2024/03/25 01:59:16;;;;;;;;;12.00;9.25;;;;;;;;5050921;28;11490;-81
2024/03/25 02:01:44;;;;;;;;;10.00;10.00;;;;;;;;5051047;28;11466;-83
2024/03/25 02:04:12;;;;;;;;;11.25;11.00;;;;;;;;5051197;28;11523;-81
2024/03/25 02:06:41;;;;;;;;;17.50;12.25;;;;;;;;5050244;28;11718;-85
2024/03/25 02:09:09;;;;;;;;;18.50;14.50;;;;;;;;5032936;28;11715;-87
2024/03/25 02:11:37;;;;;;;;;15.50;13.00;;;;;;;;5051558;28;11590;-82
2024/03/25 02:14:04;;;;;;;;;10.00;10.00;;;;;;;;5050979;28;11600;-84
2024/03/25 02:16:31;;;;;;;;;12.00;10.25;;;;;;;;5050877;28;11552;-81
2024/03/25 02:18:57;;;;;;;;;11.00;11.00;;;;;;;;5051092;28;11574;-82
2024/03/25 02:21:25;;;;;;;;;12.25;12.25;;;;;;;;5051718;28;11514;-84
2024/03/25 02:23:53;;;;;;;;;14.50;12.50;;;;;;;;5051288;28;11522;-81
2024/03/25 02:26:23;;;;;;;;;9.75;9.75;;;;;;;;5052789;28;11620;-78
2024/03/25 02:28:49;;;;;;;;;11.25;9.50;;;;;;;;5053733;28;11600;-80
2024/03/25 02:31:17;;;;;;;;;13.50;12.00;;;;;;;;5053887;28;11467;-79
2024/03/25 02:33:43;;;;;;;;;10.50;8.75;;;;;;;;5054750;28;11610;-78
2024/03/25 02:36:10;;;;;;;;;14.25;14.25;;;;;;;;5054919;28;11498;-81
2024/03/25 02:38:36;;;;;;;;;16.00;14.00;;;;;;;;5055372;28;11579;-83
2024/03/25 02:41:04;;;;;;;;;7.00;7.00;;;;;;;;5054381;28;11882;-79
2024/03/25 02:43:34;;;;;;;;;19.25;16.50;;;;;;;;5044525;28;11507;-82
2024/03/25 02:46:01;;;;;;;;;17.50;14.00;;;;;;;;5041795;28;12408;-84
2024/03/25 02:48:27;;;;;;;;;18.25;15.50;;;;;;;;5050475;28;11578;-83
2024/03/25 02:50:54;;;;;;;;;13.75;9.75;;;;;;;;5050371;28;11675;-87
2024/03/25 02:53:20;;;;;;;;;10.50;8.50;;;;;;;;5050496;28;11591;-81
2024/03/25 02:55:48;;;;;;;;;12.25;12.25;;;;;;;;5050442;28;11529;-88
2024/03/25 02:58:15;;;;;;;;;16.00;14.00;;;;;;;;5048761;28;11551;-82
2024/03/25 03:00:44;;;;;;;;;18.50;13.00;;;;;;;;5049505;28;11612;-85
2024/03/25 03:03:10;;;;;;;;;13.00;11.50;;;;;;;;5051155;28;11556;-84
2024/03/25 03:05:38;;;;;;;;;18.50;18.50;;;;;;;;5050226;28;11508;-82
2024/03/25 03:08:04;;;;;;;;;15.00;15.00;;;;;;;;5050179;28;11673;-80
2024/03/25 03:10:32;;;;;;;;;15.50;14.75;;;;;;;;5050326;28;11657;-82
2024/03/25 03:12:58;;;;;;;;;20.50;20.00;;;;;;;;5049905;28;11551;-81
2024/03/25 03:15:25;;;;;;;;;25.25;21.25;;;;;;;;5052334;28;11608;-84
2024/03/25 03:17:53;;;;;;;;;25.67;19.00;;;;;;;;5053556;28;11699;-80
2024/03/25 03:20:22;;;;;;;;;30.67;24.67;;;;;;;;5052167;28;11658;-87
2024/03/25 03:22:49;;;;;;;;;24.00;24.00;;;;;;;;5050253;28;11571;-82
2024/03/25 03:25:17;;;;;;;;;27.67;24.67;;;;;;;;5049698;28;11547;-81
2024/03/25 03:27:43;;;;;;;;;32.67;29.67;;;;;;;;5049709;28;11678;-83
2024/03/25 03:30:11;;;;;;;;;30.67;24.00;;;;;;;;5037488;28;11559;-85
2024/03/25 03:32:38;;;;;;;;;30.67;26.67;;;;;;;;5050280;28;11551;-87
2024/03/25 03:35:07;;;;;;;;;27.67;25.67;;;;;;;;5049585;28;12209;-82
2024/03/25 03:37:33;;;;;;;;;38.67;32.00;;;;;;;;5049788;28;11562;-86
2024/03/25 03:40:00;;;;;;;;;28.33;24.00;;;;;;;;5048940;28;11623;-81
2024/03/25 03:42:27;;;;;;;;;33.00;31.67;;;;;;;;5049525;28;11626;-85
2024/03/25 03:44:54;;;;;;;;;26.67;23.00;;;;;;;;5048860;28;8846;-86
2024/03/25 03:47:20;;;;;;;;;29.00;21.67;;;;;;;;5049597;28;11618;-81
2024/03/25 03:49:47;;;;;;;;;21.50;20.25;;;;;;;;5048433;28;11623;-81
2024/03/25 03:52:15;;;;;;;;;23.75;19.75;;;;;;;;5049293;28;11546;-85
2024/03/25 03:54:42;;;;;;;;;16.00;16.00;;;;;;;;5048332;28;11557;-84
2024/03/25 03:57:08;;;;;;;;;16.25;16.25;;;;;;;;5049397;28;12427;-87
2024/03/25 03:59:35;;;;;;;;;18.50;17.25;;;;;;;;5049163;28;11541;-84
2024/03/25 04:02:02;;;;;;;;;21.25;20.50;;;;;;;;5048611;28;12470;-87
2024/03/25 04:04:30;;;;;;;;;14.50;13.00;;;;;;;;5048977;28;11543;-80
2024/03/25 04:06:56;;;;;;;;;21.00;19.75;;;;;;;;5050515;28;11662;-84
2024/03/25 04:09:25;;;;;;;;;18.00;16.75;;;;;;;;5063361;28;11546;-84
2024/03/25 04:11:51;;;;;;;;;18.00;17.25;;;;;;;;5069588;28;11544;-80
2024/03/25 04:14:18;;;;;;;;;16.75;14.75;;;;;;;;5052260;28;11711;-80
2024/03/25 04:16:45;;;;;;;;;19.75;17.25;;;;;;;;5053325;28;11674;-84
2024/03/25 04:19:13;;;;;;;;;19.00;16.00;;;;;;;;5053702;28;11614;-89
2024/03/25 04:21:39;;;;;;;;;16.00;11.75;;;;;;;;5055102;28;11661;-82
2024/03/25 04:24:07;;;;;;;;;16.00;15.75;;;;;;;;5053771;28;11525;-85
2024/03/25 04:26:34;;;;;;;;;18.25;17.00;;;;;;;;5055036;28;11540;-79
2024/03/25 04:29:01;;;;;;;;;14.75;14.75;;;;;;;;5054156;28;11589;-86
2024/03/25 04:31:30;;;;;;;;;19.50;16.50;;;;;;;;5055893;28;11511;-82
2024/03/25 04:33:58;;;;;;;;;16.50;16.50;;;;;;;;5050853;28;11600;-87
2024/03/25 04:36:24;;;;;;;;;14.00;12.25;;;;;;;;5048758;28;11551;-82
